Brady, Washington
Current Conditions -  °F | °C
As of 1:53 PM on Monday 20 Oct 2014 (Local Time) from KSHN Reporting Station
Scattered Clouds Scattered Clouds  
Wind Chill: 63°   Ceiling: Unl
Heat Index: 63°   Visibility: 10mi
Dew Point: 52°   Wind: 10mph
Humidity: 67%   Direction: 170°S
Pressure: 29.73"   Gusts: NA
Location:  47.555°N, 123.746°W
Report Text: KSHN 202053Z AUTO 17009KT 10SM SCT031 SCT090 17/11 A2973 RMK AO2 SLP065 60000 T01720111 58003 TSNO
Loading
Personal Weather Stations






























Interactive Weather Map
Tropical Storm Tracking
New forecast layout! Learn more

10-Day Weather Forecast

Advertisements
Track Severe Weather on mobile